HEMAHEGN

Guest
Details From HEMA - MARSA ALAM INTL
To HEGN - HURGHADA INTL
Flight Number -
Tags generated
Created
Modified
Stats Distance 106 nm / 197 km
Max Altitude 600 ft / 183 m
Waypoints 3
Social Downloads 2
Likes 0
Share VATSIM

Download

Looking for another format? Having issues loading an existing format? Contact us
Advertisement - Login to hide

Notes

Basic altitude profile: - Ascent Rate: 2500ft/min - Ascent Speed: 250kts - Cruise Altitude: 35000ft - Cruise Speed: 420kts - Descent Rate: 1500ft/min - Descent Speed: 250kts Options: - Use NATs: yes - Use PACOTS: yes - Use low airways: yes - Use high airways: yes

Route

HEMA MAK HEGN

ID Type Via Altitude Latitude Longitude Leg Dist Tot Dist Heading (true) Name
O HEMA APT - 0 ft / 0 m 25.55711˚ 34.58371˚ - 0 nm - MARSA ALAM INTL
MAK VOR - 600 ft / 183 m 25.58278˚ 34.56556˚ 1 nm 1 nm 327° / 327° MARSA ALAM VOR-DME
O HEGN APT - 0 ft / 0 m 27.17831˚ 33.79940˚ 104 nm 106 nm 337° / 337° HURGHADA INTL

Altitude Profile

Advertisement - Login to hide

HEMA

Details ICAO HEMA (RMF)
Name MARSA ALAM INTL
Region Egypt
Timezone Africa/Cairo (UTC+2.0)
Stats Elevation 251 ft / 77 m (AMSL)
Location 25.557113° 34.583711°
Runways 1
Magnetic Variation 4.075° E

METAR

HEMA 160300Z 32011KT CAVOK 17/11 Q1019 NOSIG

Decode

TAF

TAF HEMA 151700Z 1518/1624 34010G22KT CAVOK

Decode

Departure Runways

ID Width Length Bearing (true) Bearing (mag) Surface Threshold Offset Overrun Length
15 148 ft / 45 m 9,875 ft / 3,010 m 149.89° 145.81° Asphalt 0 ft / 0 m 295 ft / 90 m
33 148 ft / 45 m 9,875 ft / 3,010 m 329.90° 325.82° Asphalt 0 ft / 0 m 295 ft / 90 m

HEGN

Details ICAO HEGN (HRG)
Name HURGHADA INTL
Region Egypt
Timezone Africa/Cairo (UTC+2.0)
Stats Elevation 52 ft / 16 m (AMSL)
Location 27.178308° 33.799397°
Runways 1
Magnetic Variation 4.212° E

METAR

HEGN 160300Z 31009KT CAVOK 16/10 Q1020 NOSIG

Decode

TAF

Not found

Destination Runways

ID Width Length Bearing (true) Bearing (mag) Surface Threshold Offset Overrun Length
16 148 ft / 45 m 13,169 ft / 4,014 m 165.29° 161.08° Asphalt 985 ft / 300 m 0 ft / 0 m
34 148 ft / 45 m 13,169 ft / 4,014 m 345.29° 341.08° Asphalt 0 ft / 0 m 200 ft / 61 m

Approach Navaids

Runway Type Ident Frequency Range Bearing (true) Bearing (mag) Slope Elevation
34 Localiser HIL 110.30 MHz 18 nm / 33 km 347.43° 343.22° - 56 ft / 17 m (AMSL)
34 Glidescope HIL 110.30 MHz 10 nm / 19 km 345.29° 341.08° 3.00° 64 ft / 20 m (AMSL)
34 DME HIL 110.30 MHz 18 nm / 33 km - - - 30 ft / 9 m (AMSL)